Página principal
METAR-TAF:

METAR-TAF

Aeroportos :

Kulob, Tadjiquistão

latitude: 37-59-18N, longitude: 069-48-18E, altura: 699 m

Observação actual do tempo

O boletim foi feito há 17 minutos, às 12:30 UTC
Vento 6 kt de sul, variando entre sul e sudoeste
Temperatura 41°C
Humidade 16%
Pressão 999 hPa
Visibilidade 10 km ou mais

METAR: UTDK 201230Z 19003MPS 170V230 9999 NSC 41/10 Q0999 R01/09//70 RMK QFE692/0923

Hora: 17:47 (12:47 UTC)

Previsão

O boletim foi feito há 47 minutos, às 12:00 UTC
Previsão válida de 20 às 13 UTC a 20 às 22 UTC
Vento 10 kt de nor-nordeste
Visibilidade: 6000 m
Poucas nuvensa uma altura de 6600 ft
Nuvens dispersasa uma altura de 15000 ft
Temporariamente
de 20 às 13 UTC a 20 às 22 UTC
Vento 4 kt com direcção variável

TAF: UTDK 201200Z 2013/2022 03005MPS 6000 FEW066 SCT150 TEMPO 2013/2022 VRB02MPS

Observações e previsões do tempo de mais de 4000 aeroportos (mensagens METAR e TAF).

As estações disponíveis são os pontos amarelos e vermelhos sobre o mapa.

Mova o rato sobre o mapa para ver o nome da estação.

Depois clique no ponto para visualizar as observações e previsões meteorológicas.

Para alterar o mapa : clique nos botões verdes com uma cruz preta para aumentar o zoom; no botão verde com uma pitada de zoom; ou nas setas verdes para mapas adjacentes.


METAR-TAF: